sensor_id;sensor_type;location;lat;lon;timestamp;pressure;altitude;pressure_sealevel;temperature;humidity
56928;BME280;60850;52.502;13.426;2023-05-22T00:01:48;101339.31;;;19.18;66.82
56928;BME280;60850;52.502;13.426;2023-05-22T00:04:16;101326.91;;;19.14;67.30
56928;BME280;60850;52.502;13.426;2023-05-22T00:06:45;101330.66;;;19.12;67.60
56928;BME280;60850;52.502;13.426;2023-05-22T00:09:13;101330.75;;;19.10;67.23
56928;BME280;60850;52.502;13.426;2023-05-22T00:11:41;101337.16;;;19.08;67.58
56928;BME280;60850;52.502;13.426;2023-05-22T00:14:08;101331.53;;;19.12;67.23
56928;BME280;60850;52.502;13.426;2023-05-22T00:16:38;101329.16;;;19.06;67.46
56928;BME280;60850;52.502;13.426;2023-05-22T00:19:07;101328.03;;;19.10;67.02
56928;BME280;60850;52.502;13.426;2023-05-22T00:21:37;101326.44;;;19.06;66.94
56928;BME280;60850;52.502;13.426;2023-05-22T00:24:05;101328.69;;;18.98;67.42
56928;BME280;60850;52.502;13.426;2023-05-22T00:26:32;101327.16;;;18.92;68.03
56928;BME280;60850;52.502;13.426;2023-05-22T00:28:59;101312.88;;;18.90;67.72
56928;BME280;60850;52.502;13.426;2023-05-22T00:31:26;101312.06;;;18.88;68.05
56928;BME280;60850;52.502;13.426;2023-05-22T00:33:53;101317.63;;;18.85;68.48
56928;BME280;60850;52.502;13.426;2023-05-22T00:36:22;101318.03;;;18.78;68.92
56928;BME280;60850;52.502;13.426;2023-05-22T00:38:49;101313.81;;;18.72;69.24
56928;BME280;60850;52.502;13.426;2023-05-22T00:41:16;101315.03;;;18.65;70.14
56928;BME280;60850;52.502;13.426;2023-05-22T00:43:43;101320.53;;;18.63;70.38
56928;BME280;60850;52.502;13.426;2023-05-22T00:46:10;101316.00;;;18.64;69.86
56928;BME280;60850;52.502;13.426;2023-05-22T00:48:39;101319.97;;;18.57;70.44
56928;BME280;60850;52.502;13.426;2023-05-22T00:51:06;101315.81;;;18.50;70.82
56928;BME280;60850;52.502;13.426;2023-05-22T00:53:35;101305.09;;;18.48;70.73
56928;BME280;60850;52.502;13.426;2023-05-22T00:56:03;101311.75;;;18.41;71.37
56928;BME280;60850;52.502;13.426;2023-05-22T00:58:30;101306.28;;;18.43;70.82
56928;BME280;60850;52.502;13.426;2023-05-22T01:00:57;101311.03;;;18.37;71.66
56928;BME280;60850;52.502;13.426;2023-05-22T01:03:25;101309.66;;;18.29;72.34
56928;BME280;60850;52.502;13.426;2023-05-22T01:05:53;101318.72;;;18.28;72.12
56928;BME280;60850;52.502;13.426;2023-05-22T01:08:20;101307.84;;;18.29;72.49
56928;BME280;60850;52.502;13.426;2023-05-22T01:10:53;101302.66;;;18.25;72.40
56928;BME280;60850;52.502;13.426;2023-05-22T01:13:27;101304.94;;;18.15;73.18
56928;BME280;60850;52.502;13.426;2023-05-22T01:16:04;101303.28;;;18.13;73.48
56928;BME280;60850;52.502;13.426;2023-05-22T01:18:42;101297.06;;;18.10;72.98
56928;BME280;60850;52.502;13.426;2023-05-22T01:21:14;101301.84;;;18.05;73.62
56928;BME280;60850;52.502;13.426;2023-05-22T01:23:48;101301.19;;;18.00;73.87
56928;BME280;60850;52.502;13.426;2023-05-22T01:26:53;101301.63;;;17.91;74.15
56928;BME280;60850;52.502;13.426;2023-05-22T01:29:45;101295.28;;;17.92;73.63
56928;BME280;60850;52.502;13.426;2023-05-22T01:32:16;101299.06;;;17.88;74.00
56928;BME280;60850;52.502;13.426;2023-05-22T01:34:50;101294.13;;;17.79;74.80
56928;BME280;60850;52.502;13.426;2023-05-22T01:37:19;101298.75;;;17.75;74.87
56928;BME280;60850;52.502;13.426;2023-05-22T01:39:48;101289.13;;;17.70;75.12
56928;BME280;60850;52.502;13.426;2023-05-22T01:42:16;101289.25;;;17.67;75.12
56928;BME280;60850;52.502;13.426;2023-05-22T01:44:44;101291.25;;;17.63;75.45
56928;BME280;60850;52.502;13.426;2023-05-22T01:47:11;101291.59;;;17.55;75.65
56928;BME280;60850;52.502;13.426;2023-05-22T01:49:40;101292.59;;;17.53;75.81
56928;BME280;60850;52.502;13.426;2023-05-22T01:52:11;101287.28;;;17.51;75.82
56928;BME280;60850;52.502;13.426;2023-05-22T01:54:42;101291.22;;;17.44;76.05
56928;BME280;60850;52.502;13.426;2023-05-22T01:57:15;101289.47;;;17.43;76.24
56928;BME280;60850;52.502;13.426;2023-05-22T01:59:46;101297.84;;;17.37;76.83
56928;BME280;60850;52.502;13.426;2023-05-22T02:02:17;101296.59;;;17.44;75.86
56928;BME280;60850;52.502;13.426;2023-05-22T02:04:51;101295.66;;;17.45;75.86
56928;BME280;60850;52.502;13.426;2023-05-22T02:07:20;101292.09;;;17.45;75.68
56928;BME280;60850;52.502;13.426;2023-05-22T02:09:50;101290.13;;;17.48;75.40
56928;BME280;60850;52.502;13.426;2023-05-22T02:12:18;101290.34;;;17.44;75.68
56928;BME280;60850;52.502;13.426;2023-05-22T02:14:46;101288.94;;;17.35;76.51
56928;BME280;60850;52.502;13.426;2023-05-22T02:17:13;101292.59;;;17.34;76.67
56928;BME280;60850;52.502;13.426;2023-05-22T02:19:42;101284.78;;;17.28;77.18
56928;BME280;60850;52.502;13.426;2023-05-22T02:22:11;101288.34;;;17.28;77.49
56928;BME280;60850;52.502;13.426;2023-05-22T02:24:39;101287.59;;;17.25;77.59
56928;BME280;60850;52.502;13.426;2023-05-22T02:27:07;101285.84;;;17.24;77.57
56928;BME280;60850;52.502;13.426;2023-05-22T02:29:34;101287.47;;;17.28;77.26
56928;BME280;60850;52.502;13.426;2023-05-22T02:32:01;101289.06;;;17.32;76.67
56928;BME280;60850;52.502;13.426;2023-05-22T02:34:28;101287.59;;;17.25;77.34
56928;BME280;60850;52.502;13.426;2023-05-22T02:36:56;101292.19;;;17.23;77.27
56928;BME280;60850;52.502;13.426;2023-05-22T02:39:25;101284.31;;;17.18;78.13
56928;BME280;60850;52.502;13.426;2023-05-22T02:41:52;101285.75;;;17.27;76.10
56928;BME280;60850;52.502;13.426;2023-05-22T02:44:20;101288.47;;;17.25;76.96
56928;BME280;60850;52.502;13.426;2023-05-22T02:46:46;101280.75;;;17.18;77.44
56928;BME280;60850;52.502;13.426;2023-05-22T02:49:14;101280.97;;;17.13;78.60
56928;BME280;60850;52.502;13.426;2023-05-22T02:51:40;101282.78;;;17.13;78.68
56928;BME280;60850;52.502;13.426;2023-05-22T02:54:13;101283.94;;;17.07;79.05
56928;BME280;60850;52.502;13.426;2023-05-22T02:56:42;101286.72;;;17.06;79.19
56928;BME280;60850;52.502;13.426;2023-05-22T02:59:09;101279.53;;;17.05;79.35
56928;BME280;60850;52.502;13.426;2023-05-22T03:01:36;101283.25;;;17.02;79.15
56928;BME280;60850;52.502;13.426;2023-05-22T03:04:04;101279.69;;;17.01;79.88
56928;BME280;60850;52.502;13.426;2023-05-22T03:06:32;101272.47;;;17.02;79.58
56928;BME280;60850;52.502;13.426;2023-05-22T03:08:59;101278.22;;;16.94;80.48
56928;BME280;60850;52.502;13.426;2023-05-22T03:11:28;101276.41;;;16.95;80.93
56928;BME280;60850;52.502;13.426;2023-05-22T03:13:57;101270.66;;;17.02;80.53
56928;BME280;60850;52.502;13.426;2023-05-22T03:16:23;101274.03;;;17.08;80.08
56928;BME280;60850;52.502;13.426;2023-05-22T03:19:06;101263.53;;;17.01;80.65
56928;BME280;60850;52.502;13.426;2023-05-22T03:21:33;101260.16;;;16.96;81.36
56928;BME280;60850;52.502;13.426;2023-05-22T03:24:00;101260.16;;;16.96;80.94
56928;BME280;60850;52.502;13.426;2023-05-22T03:26:27;101263.06;;;16.92;81.96
56928;BME280;60850;52.502;13.426;2023-05-22T03:28:54;101256.47;;;16.99;81.58
56928;BME280;60850;52.502;13.426;2023-05-22T03:31:23;101257.06;;;17.06;80.74
56928;BME280;60850;52.502;13.426;2023-05-22T03:33:50;101268.75;;;17.05;80.91
56928;BME280;60850;52.502;13.426;2023-05-22T03:36:17;101262.50;;;17.04;81.37
56928;BME280;60850;52.502;13.426;2023-05-22T03:38:46;101255.28;;;17.05;81.38
56928;BME280;60850;52.502;13.426;2023-05-22T03:41:12;101258.88;;;17.05;81.46
56928;BME280;60850;52.502;13.426;2023-05-22T03:43:40;101265.16;;;17.06;81.98
56928;BME280;60850;52.502;13.426;2023-05-22T03:46:07;101265.81;;;17.11;81.40
56928;BME280;60850;52.502;13.426;2023-05-22T03:48:37;101254.94;;;17.12;81.63
56928;BME280;60850;52.502;13.426;2023-05-22T03:51:04;101262.84;;;17.17;82.01
56928;BME280;60850;52.502;13.426;2023-05-22T03:53:31;101268.91;;;17.22;81.32
56928;BME280;60850;52.502;13.426;2023-05-22T03:55:58;101266.88;;;17.27;81.29
56928;BME280;60850;52.502;13.426;2023-05-22T03:58:25;101263.16;;;17.29;81.21
56928;BME280;60850;52.502;13.426;2023-05-22T04:00:52;101265.34;;;17.40;80.61
56928;BME280;60850;52.502;13.426;2023-05-22T04:03:20;101263.19;;;17.48;79.97
56928;BME280;60850;52.502;13.426;2023-05-22T04:05:48;101261.13;;;17.53;79.47
56928;BME280;60850;52.502;13.426;2023-05-22T04:08:16;101250.13;;;17.58;79.15
56928;BME280;60850;52.502;13.426;2023-05-22T04:10:43;101259.84;;;17.62;79.05
56928;BME280;60850;52.502;13.426;2023-05-22T04:13:11;101259.25;;;17.74;78.53
56928;BME280;60850;52.502;13.426;2023-05-22T04:15:38;101261.59;;;17.82;78.59
56928;BME280;60850;52.502;13.426;2023-05-22T04:18:10;101261.16;;;17.91;77.99
56928;BME280;60850;52.502;13.426;2023-05-22T04:20:37;101263.19;;;18.05;76.83
56928;BME280;60850;52.502;13.426;2023-05-22T04:23:06;101252.59;;;18.19;75.97
56928;BME280;60850;52.502;13.426;2023-05-22T04:25:34;101252.59;;;18.36;74.97
56928;BME280;60850;52.502;13.426;2023-05-22T04:28:01;101252.84;;;18.49;73.43
56928;BME280;60850;52.502;13.426;2023-05-22T04:30:28;101254.25;;;18.75;71.42
56928;BME280;60850;52.502;13.426;2023-05-22T04:32:58;101253.09;;;18.97;70.11
56928;BME280;60850;52.502;13.426;2023-05-22T04:35:26;101249.50;;;19.13;68.84
56928;BME280;60850;52.502;13.426;2023-05-22T04:37:55;101258.03;;;19.39;67.97
56928;BME280;60850;52.502;13.426;2023-05-22T04:40:23;101249.53;;;19.62;65.72
56928;BME280;60850;52.502;13.426;2023-05-22T04:42:51;101261.84;;;19.84;63.88
56928;BME280;60850;52.502;13.426;2023-05-22T04:45:19;101250.78;;;20.34;61.56
56928;BME280;60850;52.502;13.426;2023-05-22T04:47:50;101257.09;;;20.95;58.84
56928;BME280;60850;52.502;13.426;2023-05-22T04:50:18;101250.91;;;21.21;56.83
56928;BME280;60850;52.502;13.426;2023-05-22T04:52:45;101261.09;;;21.18;56.46
56928;BME280;60850;52.502;13.426;2023-05-22T04:55:12;101265.03;;;21.12;56.75
56928;BME280;60850;52.502;13.426;2023-05-22T04:57:41;101259.13;;;21.05;56.98
56928;BME280;60850;52.502;13.426;2023-05-22T05:00:10;101256.88;;;20.83;57.51
56928;BME280;60850;52.502;13.426;2023-05-22T05:02:38;101261.03;;;20.75;58.31
56928;BME280;60850;52.502;13.426;2023-05-22T05:05:06;101256.66;;;20.72;58.20
56928;BME280;60850;52.502;13.426;2023-05-22T05:07:36;101252.34;;;20.54;59.24
56928;BME280;60850;52.502;13.426;2023-05-22T05:10:03;101256.53;;;20.60;59.18
56928;BME280;60850;52.502;13.426;2023-05-22T05:12:31;101253.00;;;20.57;59.30
56928;BME280;60850;52.502;13.426;2023-05-22T05:14:59;101255.47;;;20.62;59.13
56928;BME280;60850;52.502;13.426;2023-05-22T05:17:27;101256.84;;;20.69;58.90
56928;BME280;60850;52.502;13.426;2023-05-22T05:19:54;101254.66;;;20.90;58.46
56928;BME280;60850;52.502;13.426;2023-05-22T05:22:21;101255.22;;;21.39;56.97
56928;BME280;60850;52.502;13.426;2023-05-22T05:24:48;101251.41;;;21.56;55.98
56928;BME280;60850;52.502;13.426;2023-05-22T05:27:15;101254.19;;;21.83;55.18
56928;BME280;60850;52.502;13.426;2023-05-22T05:29:42;101257.38;;;22.31;52.89
56928;BME280;60850;52.502;13.426;2023-05-22T05:32:11;101249.50;;;22.14;52.36
56928;BME280;60850;52.502;13.426;2023-05-22T05:34:38;101264.81;;;22.01;53.56
56928;BME280;60850;52.502;13.426;2023-05-22T05:37:05;101276.06;;;22.09;53.43
56928;BME280;60850;52.502;13.426;2023-05-22T05:39:32;101269.03;;;22.19;52.75
56928;BME280;60850;52.502;13.426;2023-05-22T05:41:59;101272.88;;;22.56;52.22
56928;BME280;60850;52.502;13.426;2023-05-22T05:44:26;101266.03;;;23.28;50.84
56928;BME280;60850;52.502;13.426;2023-05-22T05:46:53;101272.84;;;24.09;47.89
56928;BME280;60850;52.502;13.426;2023-05-22T05:49:21;101273.84;;;25.26;44.46
56928;BME280;60850;52.502;13.426;2023-05-22T05:51:49;101278.38;;;26.26;41.54
56928;BME280;60850;52.502;13.426;2023-05-22T05:54:16;101277.59;;;27.00;39.96
56928;BME280;60850;52.502;13.426;2023-05-22T05:56:43;101275.72;;;27.73;37.87
56928;BME280;60850;52.502;13.426;2023-05-22T05:59:09;101275.88;;;29.27;35.78
56928;BME280;60850;52.502;13.426;2023-05-22T06:01:37;101279.81;;;30.45;33.24
56928;BME280;60850;52.502;13.426;2023-05-22T06:04:04;101272.91;;;31.46;32.50
56928;BME280;60850;52.502;13.426;2023-05-22T06:06:35;101271.28;;;32.78;31.70
56928;BME280;60850;52.502;13.426;2023-05-22T06:09:03;101273.69;;;32.73;29.56
56928;BME280;60850;52.502;13.426;2023-05-22T06:11:31;101274.88;;;32.55;31.01
56928;BME280;60850;52.502;13.426;2023-05-22T06:13:58;101268.00;;;32.59;29.89
56928;BME280;60850;52.502;13.426;2023-05-22T06:16:25;101271.88;;;32.23;29.02
56928;BME280;60850;52.502;13.426;2023-05-22T06:18:52;101265.25;;;31.66;30.29
56928;BME280;60850;52.502;13.426;2023-05-22T06:21:21;101260.38;;;29.73;32.24
56928;BME280;60850;52.502;13.426;2023-05-22T06:23:50;101262.34;;;28.78;34.13
56928;BME280;60850;52.502;13.426;2023-05-22T06:26:18;101268.72;;;28.68;34.10
56928;BME280;60850;52.502;13.426;2023-05-22T06:28:45;101265.97;;;28.97;34.47
56928;BME280;60850;52.502;13.426;2023-05-22T06:31:12;101264.91;;;29.65;33.11
56928;BME280;60850;52.502;13.426;2023-05-22T06:33:38;101260.44;;;30.90;31.99
56928;BME280;60850;52.502;13.426;2023-05-22T06:36:07;101265.69;;;32.30;30.05
56928;BME280;60850;52.502;13.426;2023-05-22T06:38:36;101260.81;;;32.15;29.60
56928;BME280;60850;52.502;13.426;2023-05-22T06:41:05;101271.50;;;32.26;29.33
56928;BME280;60850;52.502;13.426;2023-05-22T06:43:32;101270.56;;;33.17;28.46
56928;BME280;60850;52.502;13.426;2023-05-22T06:45:59;101271.00;;;34.09;27.05
56928;BME280;60850;52.502;13.426;2023-05-22T06:48:26;101266.34;;;34.32;26.83
56928;BME280;60850;52.502;13.426;2023-05-22T06:50:53;101265.94;;;33.10;27.70
56928;BME280;60850;52.502;13.426;2023-05-22T06:53:20;101263.88;;;32.04;29.24
56928;BME280;60850;52.502;13.426;2023-05-22T06:55:48;101267.31;;;32.57;28.97
56928;BME280;60850;52.502;13.426;2023-05-22T06:58:16;101263.84;;;33.83;27.80
56928;BME280;60850;52.502;13.426;2023-05-22T07:00:44;101263.91;;;35.06;26.22
56928;BME280;60850;52.502;13.426;2023-05-22T07:03:11;101257.22;;;35.68;25.87
56928;BME280;60850;52.502;13.426;2023-05-22T07:05:38;101254.28;;;35.17;25.94
56928;BME280;60850;52.502;13.426;2023-05-22T07:08:06;101255.03;;;34.96;26.01
56928;BME280;60850;52.502;13.426;2023-05-22T07:10:34;101255.59;;;35.06;25.77
56928;BME280;60850;52.502;13.426;2023-05-22T07:13:00;101254.56;;;35.07;26.04
56928;BME280;60850;52.502;13.426;2023-05-22T07:15:30;101257.22;;;35.68;25.55
56928;BME280;60850;52.502;13.426;2023-05-22T07:17:57;101258.69;;;35.85;24.99
56928;BME280;60850;52.502;13.426;2023-05-22T07:20:24;101256.94;;;36.14;24.74
56928;BME280;60850;52.502;13.426;2023-05-22T07:22:51;101263.13;;;36.30;24.87
56928;BME280;60850;52.502;13.426;2023-05-22T07:25:18;101264.97;;;36.60;24.09
56928;BME280;60850;52.502;13.426;2023-05-22T07:27:45;101260.31;;;37.72;23.43
56928;BME280;60850;52.502;13.426;2023-05-22T07:30:12;101265.97;;;38.53;22.47
56928;BME280;60850;52.502;13.426;2023-05-22T07:32:41;101261.75;;;38.70;22.24
56928;BME280;60850;52.502;13.426;2023-05-22T07:35:08;101262.97;;;38.41;22.30
56928;BME280;60850;52.502;13.426;2023-05-22T07:37:36;101263.13;;;38.27;22.70
56928;BME280;60850;52.502;13.426;2023-05-22T07:40:05;101253.78;;;38.61;22.07
56928;BME280;60850;52.502;13.426;2023-05-22T07:42:32;101257.25;;;39.09;21.96
56928;BME280;60850;52.502;13.426;2023-05-22T07:45:00;101254.25;;;39.31;21.45
56928;BME280;60850;52.502;13.426;2023-05-22T07:47:26;101256.50;;;39.80;20.82
56928;BME280;60850;52.502;13.426;2023-05-22T07:49:55;101250.13;;;39.60;20.86
56928;BME280;60850;52.502;13.426;2023-05-22T07:52:22;101258.16;;;39.94;20.95
56928;BME280;60850;52.502;13.426;2023-05-22T07:54:49;101251.16;;;40.86;20.18
56928;BME280;60850;52.502;13.426;2023-05-22T07:57:16;101257.94;;;41.65;19.66
56928;BME280;60850;52.502;13.426;2023-05-22T07:59:43;101252.72;;;42.06;19.23
56928;BME280;60850;52.502;13.426;2023-05-22T08:02:10;101257.44;;;42.54;18.38
56928;BME280;60850;52.502;13.426;2023-05-22T08:04:38;101261.31;;;42.94;18.39
56928;BME280;60850;52.502;13.426;2023-05-22T08:07:07;101246.38;;;41.80;18.63
56928;BME280;60850;52.502;13.426;2023-05-22T08:09:34;101243.84;;;40.85;19.39
56928;BME280;60850;52.502;13.426;2023-05-22T08:12:01;101252.75;;;41.26;19.19
56928;BME280;60850;52.502;13.426;2023-05-22T08:14:29;101252.13;;;42.34;18.89
56928;BME280;60850;52.502;13.426;2023-05-22T08:16:55;101249.84;;;42.84;18.39
56928;BME280;60850;52.502;13.426;2023-05-22T08:19:23;101244.03;;;41.95;18.66
56928;BME280;60850;52.502;13.426;2023-05-22T08:21:51;101246.69;;;41.90;19.08
56928;BME280;60850;52.502;13.426;2023-05-22T08:24:24;101241.16;;;42.14;18.89
56928;BME280;60850;52.502;13.426;2023-05-22T08:26:53;101238.34;;;42.62;18.52
56928;BME280;60850;52.502;13.426;2023-05-22T08:29:20;101243.94;;;42.62;18.38
56928;BME280;60850;52.502;13.426;2023-05-22T08:31:47;101241.16;;;42.14;18.62
56928;BME280;60850;52.502;13.426;2023-05-22T08:34:14;101232.94;;;40.77;19.56
56928;BME280;60850;52.502;13.426;2023-05-22T08:36:41;101227.09;;;40.22;19.95
56928;BME280;60850;52.502;13.426;2023-05-22T08:39:09;101222.66;;;39.50;20.70
56928;BME280;60850;52.502;13.426;2023-05-22T08:41:37;101227.44;;;38.63;21.46
56928;BME280;60850;52.502;13.426;2023-05-22T08:44:05;101218.47;;;37.52;22.37
56928;BME280;60850;52.502;13.426;2023-05-22T08:46:32;101218.47;;;36.47;23.53
56928;BME280;60850;52.502;13.426;2023-05-22T08:49:03;101221.19;;;35.01;24.64
56928;BME280;60850;52.502;13.426;2023-05-22T08:51:32;101212.97;;;35.07;24.78
56928;BME280;60850;52.502;13.426;2023-05-22T08:54:04;101210.81;;;35.17;25.13
56928;BME280;60850;52.502;13.426;2023-05-22T08:56:32;101206.91;;;36.07;24.45
56928;BME280;60850;52.502;13.426;2023-05-22T08:59:01;101209.50;;;37.63;22.99
56928;BME280;60850;52.502;13.426;2023-05-22T09:01:29;101204.47;;;39.27;21.23
56928;BME280;60850;52.502;13.426;2023-05-22T09:03:59;101200.34;;;39.37;21.38
56928;BME280;60850;52.502;13.426;2023-05-22T09:06:26;101201.63;;;38.22;22.10
56928;BME280;60850;52.502;13.426;2023-05-22T09:08:55;101195.16;;;37.60;22.79
56928;BME280;60850;52.502;13.426;2023-05-22T09:11:22;101197.41;;;37.36;22.64
56928;BME280;60850;52.502;13.426;2023-05-22T09:13:49;101201.09;;;36.38;23.93
56928;BME280;60850;52.502;13.426;2023-05-22T09:16:18;101186.91;;;36.12;23.70
56928;BME280;60850;52.502;13.426;2023-05-22T09:18:45;101189.88;;;36.10;24.18
56928;BME280;60850;52.502;13.426;2023-05-22T09:21:12;101184.88;;;35.69;24.15
56928;BME280;60850;52.502;13.426;2023-05-22T09:23:40;101189.25;;;36.36;23.93
56928;BME280;60850;52.502;13.426;2023-05-22T09:26:07;101182.38;;;36.75;23.11
56928;BME280;60850;52.502;13.426;2023-05-22T09:28:35;101173.59;;;36.99;23.48
56928;BME280;60850;52.502;13.426;2023-05-22T09:31:02;101181.47;;;36.68;24.06
56928;BME280;60850;52.502;13.426;2023-05-22T09:33:32;101180.06;;;36.36;23.75
56928;BME280;60850;52.502;13.426;2023-05-22T09:36:02;101181.06;;;34.97;25.64
56928;BME280;60850;52.502;13.426;2023-05-22T09:38:29;101178.72;;;34.48;26.33
56928;BME280;60850;52.502;13.426;2023-05-22T09:40:56;101174.72;;;34.04;26.57
56928;BME280;60850;52.502;13.426;2023-05-22T09:43:23;101171.66;;;33.13;27.45
56928;BME280;60850;52.502;13.426;2023-05-22T09:45:55;101176.72;;;32.36;28.78
56928;BME280;60850;52.502;13.426;2023-05-22T09:48:23;101165.06;;;31.41;29.51
56928;BME280;60850;52.502;13.426;2023-05-22T09:50:52;101170.28;;;30.92;30.23
56928;BME280;60850;52.502;13.426;2023-05-22T09:53:25;101163.84;;;30.66;30.77
56928;BME280;60850;52.502;13.426;2023-05-22T09:55:55;101170.13;;;30.68;30.63
56928;BME280;60850;52.502;13.426;2023-05-22T09:58:25;101163.25;;;31.24;30.27
56928;BME280;60850;52.502;13.426;2023-05-22T10:00:53;101164.38;;;31.89;29.34
56928;BME280;60850;52.502;13.426;2023-05-22T10:03:22;101157.47;;;31.09;29.43
56928;BME280;60850;52.502;13.426;2023-05-22T10:05:54;101159.59;;;30.89;30.56
56928;BME280;60850;52.502;13.426;2023-05-22T10:08:24;101147.38;;;30.92;30.49
56928;BME280;60850;52.502;13.426;2023-05-22T10:10:53;101154.09;;;30.89;30.90
56928;BME280;60850;52.502;13.426;2023-05-22T10:13:22;101156.41;;;30.58;31.08
56928;BME280;60850;52.502;13.426;2023-05-22T10:15:51;101166.75;;;30.38;31.26
56928;BME280;60850;52.502;13.426;2023-05-22T10:18:19;101157.66;;;30.20;31.35
56928;BME280;60850;52.502;13.426;2023-05-22T10:20:46;101146.97;;;30.17;32.03
56928;BME280;60850;52.502;13.426;2023-05-22T10:23:16;101154.44;;;30.24;32.39
56928;BME280;60850;52.502;13.426;2023-05-22T10:25:43;101156.75;;;30.37;32.00
56928;BME280;60850;52.502;13.426;2023-05-22T10:28:15;101157.25;;;30.15;31.60
56928;BME280;60850;52.502;13.426;2023-05-22T10:30:49;101152.19;;;29.92;31.88
56928;BME280;60850;52.502;13.426;2023-05-22T10:33:21;101149.56;;;29.73;31.97
56928;BME280;60850;52.502;13.426;2023-05-22T10:35:51;101149.06;;;29.60;32.35
56928;BME280;60850;52.502;13.426;2023-05-22T10:38:38;101137.19;;;29.32;32.57
56928;BME280;60850;52.502;13.426;2023-05-22T10:41:09;101143.34;;;29.16;32.86
56928;BME280;60850;52.502;13.426;2023-05-22T10:43:39;101131.03;;;28.83;32.89
56928;BME280;60850;52.502;13.426;2023-05-22T10:46:06;101120.16;;;29.00;33.33
56928;BME280;60850;52.502;13.426;2023-05-22T10:48:36;101130.13;;;29.02;33.28
56928;BME280;60850;52.502;13.426;2023-05-22T10:51:05;101122.34;;;28.87;32.92
56928;BME280;60850;52.502;13.426;2023-05-22T10:53:35;101119.38;;;28.71;33.38
56928;BME280;60850;52.502;13.426;2023-05-22T10:56:11;101112.16;;;28.70;33.59
56928;BME280;60850;52.502;13.426;2023-05-22T10:58:41;101108.94;;;28.74;33.41
56928;BME280;60850;52.502;13.426;2023-05-22T11:01:15;101119.31;;;28.81;32.86
56928;BME280;60850;52.502;13.426;2023-05-22T11:03:56;101114.03;;;28.69;33.04
56928;BME280;60850;52.502;13.426;2023-05-22T11:06:34;101098.09;;;28.36;32.88
56928;BME280;60850;52.502;13.426;2023-05-22T11:09:17;101097.22;;;28.35;32.87
56928;BME280;60850;52.502;13.426;2023-05-22T11:11:45;101097.91;;;28.47;33.14
56928;BME280;60850;52.502;13.426;2023-05-22T11:14:16;101100.63;;;28.47;32.55
56928;BME280;60850;52.502;13.426;2023-05-22T11:16:43;101100.53;;;28.39;32.61
56928;BME280;60850;52.502;13.426;2023-05-22T11:19:13;101098.63;;;28.30;32.74
56928;BME280;60850;52.502;13.426;2023-05-22T11:21:44;101098.94;;;28.17;31.98
56928;BME280;60850;52.502;13.426;2023-05-22T11:24:14;101094.19;;;27.80;32.24
56928;BME280;60850;52.502;13.426;2023-05-22T11:26:43;101091.44;;;27.90;32.77
56928;BME280;60850;52.502;13.426;2023-05-22T11:29:10;101089.16;;;27.85;32.41
56928;BME280;60850;52.502;13.426;2023-05-22T11:31:37;101084.19;;;27.50;32.44
56928;BME280;60850;52.502;13.426;2023-05-22T11:34:05;101086.06;;;27.50;32.82
56928;BME280;60850;52.502;13.426;2023-05-22T11:36:32;101083.59;;;27.47;32.82
56928;BME280;60850;52.502;13.426;2023-05-22T11:39:00;101089.22;;;27.45;32.25
56928;BME280;60850;52.502;13.426;2023-05-22T11:41:31;101081.69;;;27.37;32.24
56928;BME280;60850;52.502;13.426;2023-05-22T11:44:00;101075.91;;;27.21;32.90
56928;BME280;60850;52.502;13.426;2023-05-22T11:46:27;101083.81;;;27.24;33.00
56928;BME280;60850;52.502;13.426;2023-05-22T11:48:55;101077.19;;;27.17;33.27
56928;BME280;60850;52.502;13.426;2023-05-22T11:51:22;101072.00;;;27.24;32.72
56928;BME280;60850;52.502;13.426;2023-05-22T11:53:49;101081.81;;;27.26;33.16
56928;BME280;60850;52.502;13.426;2023-05-22T11:56:19;101076.47;;;27.15;32.31
56928;BME280;60850;52.502;13.426;2023-05-22T11:58:47;101074.59;;;27.16;32.56
56928;BME280;60850;52.502;13.426;2023-05-22T12:01:16;101065.78;;;27.12;32.46
56928;BME280;60850;52.502;13.426;2023-05-22T12:03:43;101066.22;;;27.17;32.52
56928;BME280;60850;52.502;13.426;2023-05-22T12:06:10;101054.88;;;27.31;32.94
56928;BME280;60850;52.502;13.426;2023-05-22T12:08:37;101076.63;;;27.23;32.04
56928;BME280;60850;52.502;13.426;2023-05-22T12:11:04;101060.63;;;27.19;32.25
56928;BME280;60850;52.502;13.426;2023-05-22T12:13:32;101067.97;;;27.18;32.04
56928;BME280;60850;52.502;13.426;2023-05-22T12:15:59;101059.34;;;27.23;32.04
56928;BME280;60850;52.502;13.426;2023-05-22T12:18:34;101056.75;;;27.21;31.34
56928;BME280;60850;52.502;13.426;2023-05-22T12:21:04;101060.00;;;27.05;31.48
56928;BME280;60850;52.502;13.426;2023-05-22T12:23:31;101050.47;;;27.00;31.89
56928;BME280;60850;52.502;13.426;2023-05-22T12:26:01;101051.72;;;26.96;31.76
56928;BME280;60850;52.502;13.426;2023-05-22T12:28:30;101048.81;;;26.88;31.79
56928;BME280;60850;52.502;13.426;2023-05-22T12:30:57;101051.94;;;26.73;31.99
56928;BME280;60850;52.502;13.426;2023-05-22T12:33:26;101056.47;;;26.63;32.31
56928;BME280;60850;52.502;13.426;2023-05-22T12:35:54;101040.34;;;26.60;32.51
56928;BME280;60850;52.502;13.426;2023-05-22T12:38:24;101048.75;;;26.68;32.80
56928;BME280;60850;52.502;13.426;2023-05-22T12:40:51;101045.81;;;26.60;32.07
56928;BME280;60850;52.502;13.426;2023-05-22T12:43:19;101050.06;;;26.74;31.73
56928;BME280;60850;52.502;13.426;2023-05-22T12:45:46;101045.81;;;26.91;32.09
56928;BME280;60850;52.502;13.426;2023-05-22T12:48:13;101043.06;;;26.91;31.71